Time;durP1;ratioP1;P1;durP2;ratioP2;P2;SDS_P1;SDS_P2;PMS_P1;PMS_P2;Temp;Humidity;BMP_temperature;BMP_pressure;BME280_temperature;BME280_humidity;BME280_pressure;Samples;Min_cycle;Max_cycle;Signal;HPM_P1;HPM_P2
2022/04/12 00:00:14;;;;;;;6.32;3.75;;;9.50;99.90;;;;;;5036717;28;20073;-70
2022/04/12 00:02:40;;;;;;;9.05;3.38;;;9.60;99.90;;;;;;5036388;28;20395;-70
2022/04/12 00:05:06;;;;;;;11.05;3.70;;;9.60;99.90;;;;;;5034892;28;20241;-72
2022/04/12 00:07:32;;;;;;;10.35;4.40;;;9.40;99.90;;;;;;5036693;28;20439;-70
2022/04/12 00:09:58;;;;;;;9.82;4.05;;;9.30;99.90;;;;;;5035258;28;20107;-70
2022/04/12 00:12:23;;;;;;;8.75;3.67;;;9.20;99.90;;;;;;5036540;28;20099;-70
2022/04/12 00:14:50;;;;;;;8.63;3.88;;;9.10;99.90;;;;;;5035578;28;20080;-70
2022/04/12 00:20:01;;;;;;;8.75;3.75;;;9.20;99.90;;;;;;5035637;28;20140;-70
2022/04/12 00:22:27;;;;;;;9.18;3.88;;;9.30;99.90;;;;;;5035441;28;20064;-70
2022/04/12 00:24:53;;;;;;;7.32;3.67;;;9.40;99.90;;;;;;5036376;28;20041;-70
2022/04/12 00:27:19;;;;;;;12.32;4.80;;;9.50;99.90;;;;;;5035279;28;20385;-70
2022/04/12 00:29:45;;;;;;;7.03;3.70;;;9.40;99.90;;;;;;5035291;28;20054;-70
2022/04/12 00:32:10;;;;;;;9.95;4.05;;;9.40;99.90;;;;;;5035087;28;20132;-70
2022/04/12 00:34:37;;;;;;;7.15;3.67;;;9.40;99.90;;;;;;5034504;28;20045;-70
2022/04/12 00:37:03;;;;;;;7.53;4.10;;;9.40;99.90;;;;;;5036000;28;20111;-70
2022/04/12 00:39:30;;;;;;;8.10;3.75;;;9.40;99.90;;;;;;5035478;28;20131;-70
2022/04/12 00:41:57;;;;;;;7.53;3.53;;;9.50;99.90;;;;;;5034979;28;20053;-70
2022/04/12 00:44:22;;;;;;;9.07;3.90;;;9.50;99.90;;;;;;5034914;28;20049;-70
2022/04/12 00:46:48;;;;;;;10.98;4.20;;;9.40;99.90;;;;;;5035885;28;20128;-70
2022/04/12 00:49:14;;;;;;;8.48;4.43;;;9.50;99.90;;;;;;5034974;28;20041;-70
2022/04/12 00:51:39;;;;;;;6.95;3.85;;;9.40;99.90;;;;;;5035774;28;20052;-70
2022/04/12 00:54:05;;;;;;;8.23;4.45;;;9.40;99.90;;;;;;5034244;28;20049;-70
2022/04/12 00:56:31;;;;;;;8.20;3.92;;;9.30;99.90;;;;;;5035768;28;20045;-70
2022/04/12 00:59:01;;;;;;;8.18;4.30;;;9.10;99.90;;;;;;5034661;28;20049;-70
2022/04/12 01:01:26;;;;;;;14.40;4.43;;;9.10;99.90;;;;;;5035638;28;20049;-70
2022/04/12 01:03:52;;;;;;;7.45;4.20;;;9.00;99.90;;;;;;5033926;28;20053;-70
2022/04/12 01:06:18;;;;;;;8.10;4.47;;;9.10;99.90;;;;;;5034005;28;20057;-70
2022/04/12 01:08:44;;;;;;;12.80;5.03;;;9.00;99.90;;;;;;5018096;28;20457;-70
2022/04/12 01:11:10;;;;;;;9.20;4.75;;;9.10;99.90;;;;;;5035279;28;20168;-70
2022/04/12 01:13:36;;;;;;;11.75;4.60;;;9.00;99.90;;;;;;5035349;28;20049;-70
2022/04/12 01:16:04;;;;;;;8.60;4.57;;;9.00;99.90;;;;;;5050776;28;20398;-70
2022/04/12 01:18:30;;;;;;;11.50;5.15;;;8.90;99.90;;;;;;5034311;28;20056;-70
2022/04/12 01:20:55;;;;;;;14.13;5.38;;;8.90;99.90;;;;;;5035338;28;20049;-70
2022/04/12 01:23:31;;;;;;;9.27;5.07;;;8.90;99.90;;;;;;5035199;28;20546;-70
2022/04/12 01:25:57;;;;;;;10.85;5.55;;;8.80;99.90;;;;;;5035245;28;20481;-70
2022/04/12 01:28:23;;;;;;;8.93;4.18;;;8.90;99.90;;;;;;5034182;28;20052;-71
2022/04/12 01:30:51;;;;;;;8.90;4.82;;;8.80;99.90;;;;;;5033984;28;20042;-70
2022/04/12 01:33:17;;;;;;;11.93;5.47;;;8.90;99.90;;;;;;5034897;28;20041;-70
2022/04/12 01:35:42;;;;;;;10.25;5.03;;;8.80;99.90;;;;;;5034594;28;20057;-70
2022/04/12 01:38:08;;;;;;;11.23;5.03;;;8.90;99.90;;;;;;5033963;28;20088;-70
2022/04/12 01:40:34;;;;;;;10.77;5.00;;;9.00;99.90;;;;;;5033615;28;20042;-73
2022/04/12 01:42:59;;;;;;;8.15;4.60;;;8.90;99.90;;;;;;5033910;28;20049;-71
2022/04/12 01:45:25;;;;;;;11.60;5.35;;;8.80;99.90;;;;;;5034809;28;20125;-70
2022/04/12 01:47:51;;;;;;;11.35;5.35;;;8.80;99.90;;;;;;5034759;28;20099;-70
2022/04/12 01:50:17;;;;;;;15.30;6.03;;;8.80;99.90;;;;;;5033686;28;20052;-70
2022/04/12 01:52:42;;;;;;;10.25;5.68;;;8.90;99.90;;;;;;5034752;28;20052;-70
2022/04/12 01:55:10;;;;;;;10.43;5.00;;;9.00;99.90;;;;;;5033067;28;20057;-70
2022/04/12 01:57:36;;;;;;;10.00;5.78;;;9.00;99.90;;;;;;5033706;28;20443;-70
2022/04/12 02:00:02;;;;;;;12.40;5.80;;;9.10;99.90;;;;;;5033540;28;20099;-70
2022/04/12 02:02:28;;;;;;;9.68;5.40;;;9.00;99.90;;;;;;5050020;28;20156;-70
2022/04/12 02:04:53;;;;;;;12.82;5.53;;;8.90;99.90;;;;;;5033065;28;20373;-70
2022/04/12 02:07:19;;;;;;;10.02;5.57;;;9.00;99.90;;;;;;5034057;28;20416;-70
2022/04/12 02:09:45;;;;;;;12.82;6.57;;;8.90;99.90;;;;;;5034747;28;20045;-70
2022/04/12 02:12:11;;;;;;;10.50;6.50;;;8.90;99.90;;;;;;5033169;28;20489;-70
2022/04/12 02:14:37;;;;;;;12.02;6.43;;;8.90;99.90;;;;;;5032950;28;20508;-70
2022/04/12 02:17:03;;;;;;;12.48;6.03;;;8.80;99.90;;;;;;5033124;28;20481;-70
2022/04/12 02:19:28;;;;;;;13.20;6.28;;;8.80;99.90;;;;;;5033133;28;20049;-70
2022/04/12 02:21:54;;;;;;;15.80;5.80;;;8.80;99.90;;;;;;5033125;28;20439;-70
2022/04/12 02:24:20;;;;;;;11.25;6.53;;;8.80;99.90;;;;;;5034104;28;20046;-70
2022/04/12 02:26:45;;;;;;;11.77;6.07;;;8.90;99.90;;;;;;5033993;28;20045;-70
2022/04/12 02:29:13;;;;;;;12.43;6.38;;;8.70;99.90;;;;;;5032804;28;20049;-70
2022/04/12 02:31:40;;;;;;;12.40;6.35;;;8.70;99.90;;;;;;5034010;28;20050;-70
2022/04/12 02:34:06;;;;;;;12.02;6.40;;;8.70;99.90;;;;;;5033640;28;20049;-78
2022/04/12 02:36:32;;;;;;;12.63;6.80;;;8.70;99.90;;;;;;5032559;28;20049;-70
2022/04/12 02:38:57;;;;;;;13.60;7.22;;;8.70;99.90;;;;;;5033847;28;20048;-71
2022/04/12 02:41:23;;;;;;;13.90;6.47;;;8.70;99.90;;;;;;5032908;28;20045;-71
2022/04/12 02:43:48;;;;;;;13.20;6.38;;;8.60;99.90;;;;;;5032806;28;20045;-70
2022/04/12 02:46:14;;;;;;;12.45;6.47;;;8.60;99.90;;;;;;5033267;28;20479;-70
2022/04/12 02:48:40;;;;;;;13.57;7.07;;;8.70;99.90;;;;;;5033807;28;20096;-70
2022/04/12 02:51:06;;;;;;;15.10;6.80;;;8.70;99.90;;;;;;5033777;28;20399;-70
2022/04/12 02:53:31;;;;;;;13.25;6.50;;;8.70;99.90;;;;;;5032737;28;20494;-70
2022/04/12 02:55:57;;;;;;;13.07;6.50;;;8.60;99.90;;;;;;5033669;28;20553;-70
2022/04/12 02:58:23;;;;;;;11.02;7.13;;;8.60;99.90;;;;;;5032645;28;20046;-70
2022/04/12 03:00:48;;;;;;;14.45;6.93;;;8.50;99.90;;;;;;5032675;28;20396;-70
2022/04/12 03:03:14;;;;;;;12.15;6.25;;;8.50;99.90;;;;;;5033586;28;20507;-71
2022/04/12 03:05:39;;;;;;;13.50;6.70;;;8.60;99.90;;;;;;5031674;28;20049;-70
2022/04/12 03:08:05;;;;;;;11.32;6.97;;;8.60;99.90;;;;;;5033109;28;20056;-70
2022/04/12 03:10:31;;;;;;;14.18;7.30;;;8.60;99.90;;;;;;5015757;28;20546;-70
2022/04/12 03:12:57;;;;;;;17.42;6.80;;;8.50;99.90;;;;;;5033464;28;20042;-70
2022/04/12 03:15:22;;;;;;;16.35;7.90;;;8.50;99.90;;;;;;5032147;28;20396;-70
2022/04/12 03:17:48;;;;;;;15.27;7.82;;;8.50;99.90;;;;;;5048908;28;20136;-70
2022/04/12 03:20:14;;;;;;;17.40;9.18;;;8.50;99.90;;;;;;5032405;28;20049;-70
2022/04/12 03:22:41;;;;;;;18.20;9.13;;;8.50;99.90;;;;;;5032712;28;20439;-70
2022/04/12 03:25:11;;;;;;;17.48;10.55;;;8.60;99.90;;;;;;5032080;28;20077;-72
2022/04/12 03:27:37;;;;;;;24.55;10.77;;;8.60;99.90;;;;;;5032076;28;20083;-70
2022/04/12 03:30:04;;;;;;;24.52;10.73;;;8.50;99.90;;;;;;5033274;28;20049;-70
2022/04/12 03:32:30;;;;;;;21.02;10.95;;;8.50;99.90;;;;;;5033690;28;20050;-70
2022/04/12 03:34:56;;;;;;;24.27;12.05;;;8.50;99.90;;;;;;5032832;28;20520;-72
2022/04/12 03:37:21;;;;;;;28.25;12.77;;;8.40;99.90;;;;;;5033222;28;20140;-70
2022/04/12 03:39:48;;;;;;;23.85;12.43;;;8.50;99.90;;;;;;5033202;28;20060;-70
2022/04/12 03:42:15;;;;;;;26.58;13.70;;;8.50;99.90;;;;;;5033113;28;20049;-70
2022/04/12 03:44:41;;;;;;;27.63;13.57;;;8.50;99.90;;;;;;5032214;28;20053;-70
2022/04/12 03:47:07;;;;;;;26.15;13.82;;;8.50;99.90;;;;;;5031851;28;20054;-70
2022/04/12 03:49:33;;;;;;;24.42;12.60;;;8.50;99.90;;;;;;5032223;28;20046;-70
2022/04/12 03:51:59;;;;;;;24.25;12.38;;;8.50;99.90;;;;;;5033070;28;20530;-70
2022/04/12 03:54:25;;;;;;;21.63;12.10;;;8.40;99.90;;;;;;5032994;28;20156;-70
2022/04/12 03:56:51;;;;;;;24.42;11.65;;;8.40;99.90;;;;;;5033027;28;20467;-70
2022/04/12 03:59:17;;;;;;;21.40;11.77;;;8.40;99.90;;;;;;5031922;28;20053;-70
2022/04/12 04:01:42;;;;;;;20.45;12.45;;;8.40;99.90;;;;;;5032975;28;20049;-70
2022/04/12 04:04:09;;;;;;;22.80;12.27;;;8.30;99.90;;;;;;5031703;28;20101;-70
2022/04/12 04:06:35;;;;;;;22.65;11.93;;;8.20;99.90;;;;;;5031645;28;20061;-72
2022/04/12 04:09:01;;;;;;;20.45;11.05;;;8.20;99.90;;;;;;5032936;28;20042;-70
2022/04/12 04:11:27;;;;;;;23.83;13.20;;;8.10;99.90;;;;;;5033182;28;20515;-70
2022/04/12 04:13:52;;;;;;;21.13;12.13;;;8.20;99.90;;;;;;5032726;28;20052;-70
2022/04/12 04:16:18;;;;;;;24.48;12.60;;;8.20;99.90;;;;;;5031807;28;20056;-70
2022/04/12 04:18:44;;;;;;;23.80;13.52;;;8.10;99.90;;;;;;5032867;28;20046;-70
2022/04/12 04:21:09;;;;;;;23.83;13.35;;;8.20;99.90;;;;;;5018548;28;20043;-70
2022/04/12 04:23:35;;;;;;;23.15;12.75;;;8.20;99.90;;;;;;5036239;28;20050;-70
2022/04/12 04:26:01;;;;;;;22.15;13.20;;;8.10;99.90;;;;;;5036687;28;20064;-70
2022/04/12 04:28:29;;;;;;;26.00;13.30;;;8.10;99.90;;;;;;5036206;28;20056;-70
2022/04/12 04:30:56;;;;;;;24.33;14.90;;;8.20;99.90;;;;;;5051710;28;20093;-70
2022/04/12 04:33:22;;;;;;;25.45;14.35;;;8.20;99.90;;;;;;5034970;28;20385;-71
2022/04/12 04:35:48;;;;;;;22.75;13.13;;;8.30;99.90;;;;;;5034593;28;20491;-70
2022/04/12 04:38:15;;;;;;;23.63;13.27;;;8.30;99.90;;;;;;5036111;28;20132;-70
2022/04/12 04:40:40;;;;;;;19.48;12.23;;;8.20;99.90;;;;;;5036055;28;20085;-70
2022/04/12 04:43:07;;;;;;;23.55;11.40;;;8.30;99.90;;;;;;5034816;28;20496;-70
2022/04/12 04:45:33;;;;;;;23.10;12.55;;;8.20;99.90;;;;;;5035881;28;20052;-70
2022/04/12 04:48:01;;;;;;;20.15;11.32;;;8.30;99.90;;;;;;5035920;28;20052;-70
2022/04/12 04:50:30;;;;;;;22.70;12.00;;;8.10;99.90;;;;;;5035821;28;20136;-70
2022/04/12 04:52:57;;;;;;;20.42;11.95;;;8.10;99.90;;;;;;5035824;28;20048;-70
2022/04/12 04:55:23;;;;;;;22.35;12.73;;;8.10;99.90;;;;;;5035636;28;20053;-70
2022/04/12 04:57:53;;;;;;;23.98;13.07;;;8.10;99.90;;;;;;5034922;28;20041;-70
2022/04/12 05:00:19;;;;;;;22.98;13.10;;;8.10;99.90;;;;;;5035746;28;20068;-70
2022/04/12 05:02:46;;;;;;;27.73;13.48;;;8.10;99.90;;;;;;5034613;28;20535;-70
2022/04/12 05:05:13;;;;;;;27.08;14.10;;;8.20;99.90;;;;;;5033883;28;20057;-70
2022/04/12 05:07:40;;;;;;;24.02;13.35;;;8.10;99.90;;;;;;5034521;28;20603;-70
2022/04/12 05:10:07;;;;;;;24.98;14.40;;;8.10;99.90;;;;;;5035449;28;20087;-70
2022/04/12 05:12:33;;;;;;;26.08;14.48;;;8.10;99.90;;;;;;5035497;28;20056;-70
2022/04/12 05:14:59;;;;;;;19.40;12.90;;;8.00;99.90;;;;;;5035605;28;20046;-70
2022/04/12 05:17:25;;;;;;;27.58;13.77;;;8.10;99.90;;;;;;5035347;28;20045;-70
2022/04/12 05:19:52;;;;;;;25.40;13.25;;;8.10;99.90;;;;;;5035029;28;20510;-72
2022/04/12 05:22:18;;;;;;;20.65;11.75;;;8.20;99.90;;;;;;5035229;28;20049;-71
2022/04/12 05:24:47;;;;;;;24.67;12.07;;;8.20;99.90;;;;;;5035283;28;20042;-70
2022/04/12 05:27:13;;;;;;;18.33;10.38;;;8.20;99.90;;;;;;5034169;28;20057;-70
2022/04/12 05:29:39;;;;;;;16.73;10.38;;;8.10;99.90;;;;;;5035198;28;20053;-70
2022/04/12 05:32:05;;;;;;;19.13;9.70;;;8.30;99.90;;;;;;5034799;28;20064;-70
2022/04/12 05:34:31;;;;;;;19.60;9.82;;;8.30;99.90;;;;;;5034510;28;20099;-70
2022/04/12 05:36:57;;;;;;;17.85;10.43;;;8.20;99.90;;;;;;5033879;28;20054;-70
2022/04/12 05:39:23;;;;;;;18.15;10.48;;;8.30;99.90;;;;;;5035201;28;20045;-70
2022/04/12 05:41:48;;;;;;;16.65;9.40;;;8.50;99.90;;;;;;5034810;28;20046;-73
2022/04/12 05:44:14;;;;;;;18.67;9.48;;;8.50;99.90;;;;;;5033904;28;20049;-70
2022/04/12 05:46:40;;;;;;;16.85;9.43;;;8.60;99.90;;;;;;5033699;28;20045;-71
2022/04/12 05:49:05;;;;;;;18.90;9.82;;;8.60;99.90;;;;;;5034749;28;20550;-70
2022/04/12 05:51:31;;;;;;;17.48;9.48;;;8.70;99.90;;;;;;5033789;28;20068;-70
2022/04/12 05:53:57;;;;;;;14.85;9.18;;;8.70;99.90;;;;;;5034472;28;20380;-71
2022/04/12 05:56:22;;;;;;;17.02;8.88;;;8.90;99.90;;;;;;5033668;28;20053;-70
2022/04/12 05:58:48;;;;;;;16.13;9.60;;;9.10;99.90;;;;;;5034578;28;20049;-70
2022/04/12 06:01:14;;;;;;;17.52;9.60;;;9.20;99.90;;;;;;5034816;28;20052;-70
2022/04/12 06:03:39;;;;;;;22.88;10.05;;;9.20;99.90;;;;;;5032840;28;20488;-70
2022/04/12 06:06:05;;;;;;;15.00;9.60;;;9.20;99.90;;;;;;5032964;28;20472;-70
2022/04/12 06:08:31;;;;;;;20.23;9.18;;;9.10;99.90;;;;;;5034379;28;20056;-70
2022/04/12 06:10:56;;;;;;;16.00;9.10;;;9.00;99.90;;;;;;5033443;28;20452;-70
2022/04/12 06:13:22;;;;;;;15.27;9.82;;;9.10;99.90;;;;;;5034478;28;20081;-70
2022/04/12 06:15:48;;;;;;;19.55;9.52;;;9.10;99.90;;;;;;5034573;28;20473;-70
2022/04/12 06:18:13;;;;;;;18.60;10.75;;;9.10;99.90;;;;;;5034237;28;20045;-71
2022/04/12 06:20:39;;;;;;;20.15;10.38;;;9.10;99.90;;;;;;5033070;28;20050;-71
2022/04/12 06:23:05;;;;;;;19.60;11.75;;;9.10;99.90;;;;;;5034331;28;20051;-71
2022/04/12 06:25:31;;;;;;;21.98;11.80;;;9.20;99.90;;;;;;5033113;28;20041;-71
2022/04/12 06:27:56;;;;;;;19.02;11.60;;;9.10;99.90;;;;;;5033147;28;20045;-70
2022/04/12 06:30:24;;;;;;;20.25;11.25;;;9.20;99.90;;;;;;5032684;28;20053;-70
2022/04/12 06:32:51;;;;;;;20.77;11.25;;;9.30;99.90;;;;;;5033973;28;20049;-70
2022/04/12 06:35:17;;;;;;;20.38;10.30;;;9.20;99.90;;;;;;5033343;28;20460;-70
2022/04/12 06:37:44;;;;;;;21.58;10.48;;;9.20;99.90;;;;;;5033954;28;20124;-70
2022/04/12 06:40:14;;;;;;;17.25;10.57;;;9.20;99.90;;;;;;5033840;28;20095;-72
2022/04/12 06:42:40;;;;;;;17.95;10.32;;;9.20;99.90;;;;;;5033197;28;20049;-71
2022/04/12 06:45:08;;;;;;;18.75;10.02;;;9.20;99.90;;;;;;5032730;28;20053;-71
2022/04/12 06:47:33;;;;;;;19.63;10.88;;;9.30;99.90;;;;;;5033727;28;20052;-71
2022/04/12 06:50:00;;;;;;;21.73;10.30;;;9.30;99.90;;;;;;5033698;28;20045;-71
2022/04/12 06:52:25;;;;;;;20.83;10.55;;;9.30;99.90;;;;;;5033371;28;20385;-71
2022/04/12 06:54:51;;;;;;;23.17;10.93;;;9.40;99.90;;;;;;5032570;28;20053;-71
2022/04/12 06:57:18;;;;;;;19.83;11.43;;;9.50;99.90;;;;;;5033580;28;20038;-74
2022/04/12 06:59:44;;;;;;;19.35;10.60;;;9.60;99.90;;;;;;5033414;28;20041;-72
2022/04/12 07:02:10;;;;;;;17.83;10.70;;;9.50;99.90;;;;;;5040961;28;20634;-72
2022/04/12 07:04:36;;;;;;;18.48;10.25;;;9.60;99.90;;;;;;5033144;28;20053;-71
2022/04/12 07:07:02;;;;;;;20.25;10.07;;;9.40;99.90;;;;;;5033460;28;20452;-70
2022/04/12 07:09:29;;;;;;;15.57;9.80;;;9.50;99.90;;;;;;5033578;28;20087;-70
2022/04/12 07:11:57;;;;;;;18.95;10.57;;;9.50;99.90;;;;;;5033592;28;20045;-70
2022/04/12 07:14:23;;;;;;;17.20;9.68;;;9.50;99.90;;;;;;5032226;28;20396;-70
2022/04/12 07:16:49;;;;;;;14.98;9.23;;;9.50;99.90;;;;;;5031904;28;20518;-70
2022/04/12 07:19:15;;;;;;;24.08;10.18;;;9.50;99.90;;;;;;5032415;28;20077;-70
2022/04/12 07:21:40;;;;;;;17.65;9.25;;;9.70;99.90;;;;;;5033541;28;20132;-75
2022/04/12 07:24:09;;;;;;;15.85;9.05;;;9.80;99.90;;;;;;5033403;28;20087;-70
2022/04/12 07:26:36;;;;;;;14.38;8.98;;;9.80;99.90;;;;;;5033677;28;20045;-70
2022/04/12 07:29:03;;;;;;;14.48;9.45;;;10.00;99.90;;;;;;5032343;28;20045;-70
2022/04/12 07:31:29;;;;;;;17.05;9.35;;;10.10;99.90;;;;;;5033302;28;20084;-70
2022/04/12 07:33:54;;;;;;;16.58;9.23;;;10.30;99.90;;;;;;5033263;28;20167;-70
2022/04/12 07:36:21;;;;;;;18.02;9.77;;;10.40;99.90;;;;;;5048372;28;20137;-70
2022/04/12 07:38:48;;;;;;;15.93;9.73;;;10.40;99.90;;;;;;5048742;28;20046;-70
2022/04/12 07:41:18;;;;;;;16.83;9.63;;;10.40;99.90;;;;;;5032253;28;20111;-70
2022/04/12 07:43:49;;;;;;;18.08;9.25;;;10.30;99.90;;;;;;5032162;28;20404;-70
2022/04/12 07:46:15;;;;;;;20.45;9.20;;;10.50;99.90;;;;;;5033343;28;20045;-70
2022/04/12 07:48:43;;;;;;;18.08;9.65;;;10.40;99.90;;;;;;5032288;28;20451;-68
2022/04/12 07:51:09;;;;;;;15.63;9.13;;;10.50;99.90;;;;;;5031973;28;20365;-70
2022/04/12 07:53:35;;;;;;;15.00;9.38;;;10.60;99.90;;;;;;5033851;28;20049;-70
2022/04/12 07:56:02;;;;;;;16.88;9.45;;;10.70;99.90;;;;;;5035950;28;20053;-70
2022/04/12 07:58:27;;;;;;;18.05;9.90;;;10.70;99.90;;;;;;5035958;28;20041;-70
2022/04/12 08:00:53;;;;;;;18.40;9.27;;;10.80;99.90;;;;;;5036807;28;20550;-70
2022/04/12 08:03:21;;;;;;;14.20;9.15;;;10.80;99.90;;;;;;5052438;28;20041;-71
2022/04/12 08:05:50;;;;;;;21.83;9.93;;;10.90;99.90;;;;;;5036440;28;20065;-70
2022/04/12 08:08:17;;;;;;;14.05;9.07;;;11.00;99.90;;;;;;5036754;28;20170;-70
2022/04/12 08:10:43;;;;;;;14.95;9.57;;;11.10;99.90;;;;;;5036587;28;20057;-70
2022/04/12 08:13:09;;;;;;;18.88;9.18;;;11.20;99.90;;;;;;5035563;28;20049;-80
2022/04/12 08:15:36;;;;;;;15.27;9.38;;;11.20;99.90;;;;;;5035265;28;20072;-70
2022/04/12 08:18:03;;;;;;;14.75;8.85;;;11.30;99.90;;;;;;5036529;28;20081;-69
2022/04/12 08:20:29;;;;;;;15.35;9.48;;;11.20;99.90;;;;;;5036474;28;20053;-69
2022/04/12 08:22:56;;;;;;;14.75;8.90;;;11.50;99.90;;;;;;5035324;28;20544;-69
2022/04/12 08:25:22;;;;;;;15.38;9.40;;;11.70;99.90;;;;;;5035228;28;20096;-69
2022/04/12 08:27:48;;;;;;;17.02;9.40;;;11.80;99.90;;;;;;5036356;28;20045;-69
2022/04/12 08:30:14;;;;;;;15.18;8.77;;;11.80;99.90;;;;;;5035220;28;20140;-70
2022/04/12 08:32:40;;;;;;;17.65;9.27;;;11.80;99.90;;;;;;5036279;28;20125;-68
2022/04/12 08:35:06;;;;;;;15.80;8.48;;;11.90;99.90;;;;;;5035664;28;20044;-69
2022/04/12 08:37:32;;;;;;;14.10;9.02;;;12.00;99.90;;;;;;5036374;28;20136;-86
2022/04/12 08:39:58;;;;;;;21.90;8.00;;;12.20;99.90;;;;;;5035579;28;20077;-85
2022/04/12 08:42:24;;;;;;;31.75;10.10;;;11.90;99.90;;;;;;5035041;28;20484;-86
2022/04/12 08:44:50;;;;;;;23.88;9.35;;;11.80;99.90;;;;;;5035459;28;20044;-84
2022/04/12 08:47:18;;;;;;;17.45;9.00;;;11.90;99.90;;;;;;5035021;28;20417;-84
2022/04/12 08:49:44;;;;;;;16.85;9.00;;;11.90;99.90;;;;;;5035131;28;20103;-69
2022/04/12 08:52:12;;;;;;;16.23;9.43;;;12.10;99.90;;;;;;5034891;28;20042;-69
2022/04/12 08:54:42;;;;;;;16.52;9.27;;;12.40;99.90;;;;;;5035756;28;20041;-70
2022/04/12 08:57:08;;;;;;;16.95;9.40;;;12.70;99.90;;;;;;5034621;28;20049;-69
2022/04/12 08:59:34;;;;;;;17.80;9.38;;;13.00;99.90;;;;;;5035814;28;20481;-71
2022/04/12 09:02:00;;;;;;;16.55;9.57;;;13.30;99.90;;;;;;5035367;28;20056;-75
2022/04/12 09:04:27;;;;;;;17.67;9.50;;;13.40;99.90;;;;;;5034403;28;20132;-69
2022/04/12 09:06:55;;;;;;;13.32;8.52;;;13.50;99.90;;;;;;5034718;28;20147;-81
2022/04/12 09:09:23;;;;;;;14.13;8.63;;;13.30;99.90;;;;;;5034569;28;20068;-82
2022/04/12 09:12:02;;;;;;;14.32;8.80;;;13.30;99.90;;;;;;5034718;28;20045;-78
2022/04/12 09:14:39;;;;;;;15.93;8.68;;;13.20;99.90;;;;;;5034593;28;20092;-84
2022/04/12 09:17:12;;;;;;;14.20;8.98;;;13.30;99.90;;;;;;5034442;28;20045;-77
2022/04/12 09:19:39;;;;;;;13.82;9.07;;;13.40;99.90;;;;;;5018966;28;20056;-82
2022/04/12 09:22:16;;;;;;;16.02;9.20;;;13.20;99.90;;;;;;5034024;28;20092;-80
2022/04/12 09:24:50;;;;;;;12.75;8.57;;;13.20;99.90;;;;;;5034115;28;20054;-79
2022/04/12 09:27:17;;;;;;;12.98;8.80;;;13.40;99.90;;;;;;5034185;28;20120;-73
2022/04/12 09:29:51;;;;;;;18.58;9.13;;;13.60;99.90;;;;;;5034005;28;20203;-84
2022/04/12 09:32:22;;;;;;;15.70;10.07;;;13.80;99.90;;;;;;5034121;28;20095;-84
2022/04/12 09:34:49;;;;;;;17.08;8.93;;;13.80;99.90;;;;;;5033343;28;20050;-83
2022/04/12 09:37:22;;;;;;;14.20;9.02;;;13.80;99.90;;;;;;5034077;28;20049;-77
2022/04/12 09:40:00;;;;;;;14.02;8.60;;;13.90;99.90;;;;;;5034196;28;20084;-77
2022/04/12 09:42:48;;;;;;;14.13;9.25;;;14.00;99.90;;;;;;5033924;28;20042;-80
2022/04/12 09:45:17;;;;;;;15.40;9.20;;;14.10;99.90;;;;;;5034068;28;20053;-80
2022/04/12 09:47:44;;;;;;;14.38;9.00;;;14.30;99.90;;;;;;5034561;28;20069;-78
2022/04/12 09:50:11;;;;;;;15.93;8.95;;;14.30;99.90;;;;;;5034018;28;20056;-76
2022/04/12 09:52:38;;;;;;;12.85;8.82;;;14.30;99.90;;;;;;5033739;28;20449;-74
2022/04/12 09:55:06;;;;;;;13.13;8.23;;;14.40;99.90;;;;;;5034869;28;20107;-83
2022/04/12 09:57:32;;;;;;;15.52;7.95;;;14.30;99.90;;;;;;5033727;28;20041;-82
2022/04/12 09:59:58;;;;;;;14.60;9.27;;;14.60;99.90;;;;;;5017259;28;20484;-76
2022/04/12 10:02:26;;;;;;;15.23;8.90;;;14.60;99.90;;;;;;5017225;28;20061;-78
2022/04/12 10:04:53;;;;;;;13.10;8.55;;;14.80;99.90;;;;;;5016639;28;20061;-75
2022/04/12 10:07:21;;;;;;;14.82;8.68;;;15.00;99.90;;;;;;5033471;28;20058;-77
2022/04/12 10:09:50;;;;;;;16.20;8.13;;;15.10;99.90;;;;;;5033317;28;20096;-74
2022/04/12 10:12:17;;;;;;;16.33;8.45;;;14.90;99.90;;;;;;5034566;28;20049;-81
2022/04/12 10:14:43;;;;;;;12.02;7.70;;;15.00;99.90;;;;;;5033411;28;20072;-77
2022/04/12 10:17:11;;;;;;;16.05;8.23;;;15.30;99.90;;;;;;5033538;28;20053;-76
2022/04/12 10:19:38;;;;;;;15.32;9.27;;;15.40;99.90;;;;;;5049776;28;20446;-75
2022/04/12 10:22:04;;;;;;;16.45;9.07;;;15.50;99.90;;;;;;5033123;28;20055;-75
2022/04/12 10:24:30;;;;;;;14.43;8.52;;;15.70;99.90;;;;;;5033072;28;20096;-74
2022/04/12 10:26:57;;;;;;;14.68;8.60;;;15.90;99.90;;;;;;5034053;28;20086;-76
2022/04/12 10:29:22;;;;;;;14.80;8.40;;;16.00;99.90;;;;;;5033287;28;20076;-74
2022/04/12 10:32:03;;;;;;;13.48;8.50;;;15.90;99.90;;;;;;5034190;28;20475;-79
2022/04/12 10:34:29;;;;;;;13.93;8.95;;;16.10;99.90;;;;;;5034243;28;20044;-76
2022/04/12 10:36:58;;;;;;;15.45;8.98;;;16.30;99.90;;;;;;5033920;28;20136;-75
2022/04/12 10:39:47;;;;;;;14.82;8.57;;;16.60;99.90;;;;;;5032870;28;20049;-75
2022/04/12 10:42:24;;;;;;;12.00;8.23;;;16.40;99.90;;;;;;5033929;28;20119;-75
2022/04/12 10:44:56;;;;;;;15.77;8.88;;;16.70;99.90;;;;;;5033359;28;20136;-76
2022/04/12 10:47:24;;;;;;;13.13;9.38;;;16.80;99.90;;;;;;5033849;28;20092;-78
2022/04/12 10:50:14;;;;;;;13.32;8.18;;;16.80;99.90;;;;;;5032822;28;20053;-76
2022/04/12 10:52:44;;;;;;;14.77;8.60;;;16.90;99.90;;;;;;5028351;28;20050;-76
2022/04/12 10:55:16;;;;;;;14.77;9.20;;;16.90;99.90;;;;;;5033851;28;20045;-75
2022/04/12 10:57:42;;;;;;;14.18;8.82;;;17.20;99.90;;;;;;5049285;28;20045;-78
2022/04/12 11:00:12;;;;;;;14.77;9.13;;;17.30;99.90;;;;;;5032554;28;20045;-77
2022/04/12 11:02:42;;;;;;;11.20;8.70;;;17.20;99.90;;;;;;5032345;28;20084;-77
2022/04/12 11:05:37;;;;;;;12.18;8.05;;;17.20;99.90;;;;;;5032907;28;20110;-80
2022/04/12 11:08:07;;;;;;;16.45;8.82;;;17.60;99.90;;;;;;5033018;28;20041;-74
2022/04/12 11:10:33;;;;;;;14.27;8.65;;;17.80;99.90;;;;;;5032642;28;20124;-80
2022/04/12 11:13:10;;;;;;;15.23;8.00;;;18.10;99.90;;;;;;5016297;28;20130;-78
2022/04/12 11:15:37;;;;;;;13.95;8.70;;;18.50;99.90;;;;;;5032281;28;20088;-78
2022/04/12 11:18:14;;;;;;;19.13;9.00;;;18.50;99.90;;;;;;5032653;28;20056;-78
2022/04/12 11:20:44;;;;;;;;;;;18.60;99.90;;;;;;5032987;28;20494;-80
2022/04/12 11:23:12;;;;;;;14.00;8.77;;;18.40;99.90;;;;;;5032181;28;19920;-73
2022/04/12 11:25:49;;;;;;;16.08;9.27;;;18.40;99.90;;;;;;5016165;28;20045;-78
2022/04/12 11:28:20;;;;;;;13.73;8.75;;;18.60;99.90;;;;;;5033058;28;20476;-78
2022/04/12 11:30:59;;;;;;;14.80;9.38;;;18.40;99.90;;;;;;5036526;28;20504;-78
2022/04/12 11:33:27;;;;;;;17.67;9.45;;;18.50;99.80;;;;;;5036503;28;20083;-78
2022/04/12 11:35:53;;;;;;;15.70;8.90;;;18.50;99.90;;;;;;5035808;28;20049;-80
2022/04/12 11:38:20;;;;;;;16.10;9.63;;;18.60;99.90;;;;;;5036704;28;20041;-81
2022/04/12 11:40:46;;;;;;;18.02;9.52;;;18.50;99.90;;;;;;5019996;28;20053;-82
2022/04/12 11:43:24;;;;;;;20.00;9.13;;;18.60;99.90;;;;;;5036612;28;20151;-83
2022/04/12 11:45:56;;;;;;;14.23;8.90;;;18.70;99.90;;;;;;5036622;28;20128;-83
2022/04/12 11:48:22;;;;;;;14.77;9.45;;;18.90;99.90;;;;;;5036235;28;20385;-83
2022/04/12 11:50:52;;;;;;;15.93;9.43;;;19.10;99.90;;;;;;5036050;28;20107;-79
2022/04/12 11:53:19;;;;;;;13.40;9.05;;;18.90;99.90;;;;;;5019861;28;20491;-72
2022/04/12 11:55:46;;;;;;;14.35;9.13;;;19.00;99.90;;;;;;5035709;28;20045;-78
2022/04/12 11:58:13;;;;;;;13.63;8.98;;;19.10;99.90;;;;;;5036245;28;20051;-77
2022/04/12 12:00:38;;;;;;;13.25;9.10;;;19.00;99.90;;;;;;5036055;28;20045;-76
2022/04/12 12:03:04;;;;;;;14.25;9.35;;;19.10;99.90;;;;;;5019645;28;20368;-80
2022/04/12 12:05:31;;;;;;;15.90;9.30;;;18.70;99.90;;;;;;5018656;28;20112;-77
2022/04/12 12:07:58;;;;;;;16.40;9.23;;;18.80;99.90;;;;;;5035782;28;20057;-80
2022/04/12 12:10:24;;;;;;;17.02;9.70;;;18.90;99.90;;;;;;5035831;28;20049;-77
2022/04/12 12:12:50;;;;;;;15.15;8.75;;;19.00;99.90;;;;;;5035754;28;20075;-77
2022/04/12 12:15:27;;;;;;;16.80;9.38;;;19.00;99.90;;;;;;5002607;28;20041;-77
2022/04/12 12:18:00;;;;;;;13.82;8.82;;;19.30;99.90;;;;;;5035964;28;20131;-80
2022/04/12 12:20:29;;;;;;;13.68;8.85;;;19.30;99.90;;;;;;5035598;28;20053;-77
2022/04/12 12:23:00;;;;;;;13.02;7.85;;;19.10;99.90;;;;;;5035490;28;20041;-83
2022/04/12 12:25:55;;;;;;;13.57;9.05;;;19.40;99.90;;;;;;5035702;28;20404;-86
2022/04/12 12:28:23;;;;;;;15.27;9.15;;;19.20;99.90;;;;;;5035734;28;20089;-85
2022/04/12 12:30:58;;;;;;;15.88;8.57;;;19.10;99.90;;;;;;5035326;28;20041;-86
2022/04/12 12:33:24;;;;;;;13.90;8.82;;;19.00;99.90;;;;;;5035510;28;20400;-83
2022/04/12 12:35:51;;;;;;;15.05;8.68;;;19.10;99.90;;;;;;5034742;28;20044;-79
2022/04/12 12:38:27;;;;;;;13.77;8.93;;;19.30;99.90;;;;;;5035529;28;20106;-87
2022/04/12 12:40:56;;;;;;;18.38;8.57;;;19.30;99.90;;;;;;5034174;28;20485;-90
2022/04/12 12:43:22;;;;;;;16.40;9.35;;;19.50;99.90;;;;;;5035383;28;20081;-83